Time;durP1;ratioP1;P1;durP2;ratioP2;P2;SDS_P1;SDS_P2;PMS_P1;PMS_P2;Temp;Humidity;BMP_temperature;BMP_pressure;BME280_temperature;BME280_humidity;BME280_pressure;Samples;Min_cycle;Max_cycle;Signal;HPM_P1;HPM_P2
2023/01/12 00:01:40;;;;;;;7.35;5.43;;;29.10;98.00;;;;;;5026965;28;20017;-60
2023/01/12 00:04:10;;;;;;;10.15;4.65;;;29.30;98.20;;;;;;5024111;28;20032;-66
2023/01/12 00:06:38;;;;;;;6.35;4.53;;;29.50;96.90;;;;;;5021702;28;20422;-60
2023/01/12 00:09:07;;;;;;;8.10;5.38;;;29.70;97.30;;;;;;5019836;28;20033;-66
2023/01/12 00:11:37;;;;;;;5.45;4.60;;;29.60;97.80;;;;;;5020633;28;20488;-60
2023/01/12 00:14:06;;;;;;;7.35;6.38;;;29.70;97.50;;;;;;5019697;28;20033;-67
2023/01/12 00:16:41;;;;;;;8.98;5.75;;;29.70;97.50;;;;;;5021851;28;20033;-60
2023/01/12 00:19:10;;;;;;;7.93;5.65;;;29.90;97.60;;;;;;5022262;28;20059;-60
2023/01/12 00:24:20;;;;;;;10.25;7.25;;;29.90;96.60;;;;;;5022211;28;20040;-67
2023/01/12 00:26:48;;;;;;;10.23;6.22;;;30.00;97.50;;;;;;5025928;28;20117;-67
2023/01/12 00:29:16;;;;;;;5.82;5.00;;;30.50;97.40;;;;;;5024995;28;20403;-66
2023/01/12 00:31:44;;;;;;;8.00;5.47;;;30.50;96.10;;;;;;5024226;28;20030;-59
2023/01/12 00:34:11;;;;;;;6.68;4.63;;;30.20;96.30;;;;;;5022618;28;20203;-66
2023/01/12 00:36:38;;;;;;;10.55;4.82;;;30.40;95.30;;;;;;5024808;28;20105;-65
2023/01/12 00:39:05;;;;;;;6.13;5.40;;;30.20;96.20;;;;;;5023535;28;20036;-67
2023/01/12 00:47:07;;;;;;;5.88;5.00;;;30.30;96.10;;;;;;5024231;28;20021;-64
2023/01/12 00:49:36;;;;;;;7.22;3.83;;;30.40;96.40;;;;;;5024110;28;20025;-65
2023/01/12 00:52:05;;;;;;;5.15;3.10;;;30.80;96.20;;;;;;5018939;28;20506;-59
2023/01/12 00:54:33;;;;;;;4.60;3.15;;;31.30;95.40;;;;;;5022029;28;20026;-66
2023/01/12 00:57:00;;;;;;;5.47;3.30;;;31.40;94.60;;;;;;5026108;28;20487;-59
2023/01/12 00:59:28;;;;;;;5.85;4.47;;;30.90;95.30;;;;;;5025072;28;20662;-66
2023/01/12 01:01:55;;;;;;;7.35;5.70;;;30.60;95.00;;;;;;5023380;28;20026;-66
2023/01/12 01:04:22;;;;;;;6.95;5.32;;;30.50;95.90;;;;;;5026066;28;20053;-59
2023/01/12 01:06:50;;;;;;;6.93;4.05;;;30.30;95.60;;;;;;5026085;28;20476;-62
2023/01/12 01:09:17;;;;;;;5.28;3.47;;;30.70;96.10;;;;;;5025362;28;20018;-61
2023/01/12 01:11:44;;;;;;;4.15;3.30;;;31.20;95.90;;;;;;5025457;28;20036;-61
2023/01/12 01:14:11;;;;;;;5.75;2.35;;;31.20;95.40;;;;;;5026023;28;20021;-60
2023/01/12 01:16:37;;;;;;;7.47;2.75;;;31.40;94.60;;;;;;5025913;28;20040;-62
2023/01/12 01:19:04;;;;;;;4.35;3.13;;;31.20;95.80;;;;;;5025519;28;20026;-62
2023/01/12 01:21:33;;;;;;;4.80;3.28;;;30.90;95.70;;;;;;5024796;28;20029;-64
2023/01/12 01:24:00;;;;;;;6.30;3.88;;;30.60;94.80;;;;;;5023251;28;20095;-67
2023/01/12 01:26:29;;;;;;;5.78;3.25;;;30.30;96.00;;;;;;5021920;28;20026;-65
2023/01/12 01:31:33;;;;;;;5.22;4.00;;;30.90;95.20;;;;;;5023016;28;20420;-59
2023/01/12 01:34:00;;;;;;;7.03;4.15;;;31.50;96.30;;;;;;5025628;28;20037;-63
2023/01/12 01:36:27;;;;;;;6.35;5.00;;;31.50;94.90;;;;;;5025999;28;20053;-63
2023/01/12 01:38:54;;;;;;;6.72;4.40;;;31.60;94.50;;;;;;5024794;28;20021;-59
2023/01/12 01:41:29;;;;;;;6.30;3.40;;;31.40;94.60;;;;;;5024714;28;20413;-60
2023/01/12 01:44:03;;;;;;;4.95;3.30;;;31.00;94.90;;;;;;5026197;28;20022;-63
2023/01/12 01:46:50;;;;;;;5.53;3.05;;;31.40;94.00;;;;;;5025065;28;20259;-64
2023/01/12 01:49:42;;;;;;;6.25;2.78;;;31.60;93.80;;;;;;5018636;28;20026;-59
2023/01/12 01:52:14;;;;;;;4.93;3.00;;;31.30;93.90;;;;;;4962837;28;20139;-66
2023/01/12 01:54:46;;;;;;;5.53;2.58;;;30.80;95.00;;;;;;4961320;28;20047;-61
2023/01/12 01:57:14;;;;;;;5.97;3.33;;;30.90;94.50;;;;;;4962389;28;20399;-61
2023/01/12 01:59:46;;;;;;;5.45;3.00;;;31.20;94.10;;;;;;4961222;28;20475;-64
2023/01/12 02:02:13;;;;;;;;;;;31.90;94.40;;;;;;4963832;28;20027;-61
2023/01/12 02:04:40;;;;;;;4.32;2.90;;;32.50;94.40;;;;;;4962711;28;19918;-60
2023/01/12 02:07:07;;;;;;;4.03;3.00;;;32.50;94.00;;;;;;4965388;28;20495;-67
2023/01/12 02:09:35;;;;;;;5.85;3.30;;;32.30;92.90;;;;;;4967157;28;20031;-68
2023/01/12 02:17:54;;;;;;;3.92;3.28;;;33.70;93.10;;;;;;4975509;28;20041;-61
2023/01/12 02:20:42;;;;;;;7.38;4.90;;;33.90;92.80;;;;;;4975634;28;20133;-62
2023/01/12 02:23:22;;;;;;;8.80;4.20;;;34.20;92.60;;;;;;4977925;28;20046;-64
2023/01/12 02:26:21;;;;;;;5.25;4.00;;;34.40;91.70;;;;;;4977081;28;20280;-60
2023/01/12 02:29:15;;;;;;;6.40;4.22;;;34.50;91.60;;;;;;4992046;28;20361;-62
2023/01/12 02:32:17;;;;;;;5.63;4.25;;;34.90;91.40;;;;;;5027493;28;20033;-64
2023/01/12 02:35:19;;;;;;;6.32;3.88;;;34.50;91.30;;;;;;4964800;28;20525;-61
2023/01/12 02:37:50;;;;;;;;;;;35.10;91.70;;;;;;4967090;28;20035;-61
2023/01/12 02:40:33;;;;;;;7.75;4.00;;;34.80;90.90;;;;;;4966044;28;19910;-63
2023/01/12 02:43:22;;;;;;;6.78;3.97;;;34.90;90.60;;;;;;4966925;28;20398;-61
2023/01/12 02:46:20;;;;;;;5.13;4.47;;;34.80;91.40;;;;;;4967211;28;20562;-60
2023/01/12 02:48:52;;;;;;;5.07;4.57;;;35.20;91.70;;;;;;4935390;29;20040;-70
2023/01/12 02:51:22;;;;;;;9.55;5.53;;;35.60;91.20;;;;;;4927562;29;20564;-63
2023/01/12 02:53:53;;;;;;;6.43;5.00;;;35.70;90.10;;;;;;4926883;29;20570;-61
2023/01/12 02:56:45;;;;;;;6.25;5.65;;;35.80;89.60;;;;;;4928774;29;20035;-62
2023/01/12 02:59:16;;;;;;;6.75;5.32;;;35.50;90.10;;;;;;4930295;29;20235;-61
2023/01/12 03:01:47;;;;;;;7.13;5.28;;;35.70;89.10;;;;;;4926715;29;20119;-61
2023/01/12 03:04:16;;;;;;;8.93;5.90;;;35.40;88.40;;;;;;4929018;29;20511;-62
2023/01/12 03:07:12;;;;;;;7.35;6.13;;;35.20;89.40;;;;;;4938324;29;20086;-60
2023/01/12 03:09:46;;;;;;;8.88;5.28;;;35.40;90.70;;;;;;4892360;29;20044;-69
2023/01/12 03:12:19;;;;;;;5.35;4.35;;;35.70;90.90;;;;;;4931492;29;20055;-62
2023/01/12 03:14:50;;;;;;;7.13;4.78;;;35.90;90.30;;;;;;4934988;29;20577;-60
2023/01/12 03:17:32;;;;;;;9.17;4.87;;;35.40;90.50;;;;;;4932462;29;20063;-64
2023/01/12 03:20:09;;;;;;;11.95;5.82;;;34.80;90.90;;;;;;4932398;29;20278;-61
2023/01/12 03:22:37;;;;;;;7.10;4.97;;;34.50;91.00;;;;;;4932408;29;20733;-63
2023/01/12 03:25:12;;;;;;;7.28;5.30;;;33.90;92.10;;;;;;4946203;28;20244;-63
2023/01/12 03:27:43;;;;;;;8.98;6.85;;;34.20;92.90;;;;;;4970175;28;20130;-69
2023/01/12 03:30:17;;;;;;;7.55;6.38;;;34.50;91.60;;;;;;4965059;28;20354;-63
2023/01/12 03:32:45;;;;;;;7.47;5.68;;;34.50;91.40;;;;;;4961664;28;20038;-62
2023/01/12 03:35:13;;;;;;;9.85;5.60;;;35.00;91.00;;;;;;4963741;28;20061;-61
2023/01/12 03:37:50;;;;;;;11.18;5.57;;;34.50;90.80;;;;;;4964733;28;20049;-65
2023/01/12 03:40:22;;;;;;;7.93;5.85;;;33.90;91.90;;;;;;4964750;28;20121;-65
2023/01/12 03:43:32;;;;;;;8.52;6.38;;;33.80;92.00;;;;;;4969677;28;20022;-60
2023/01/12 03:46:23;;;;;;;9.80;6.18;;;33.60;91.50;;;;;;4933243;28;20025;-61
2023/01/12 03:49:13;;;;;;;9.35;6.25;;;33.80;92.60;;;;;;4988842;28;20034;-66
2023/01/12 03:51:44;;;;;;;7.13;5.72;;;34.00;92.20;;;;;;4989742;28;20042;-69
2023/01/12 03:54:13;;;;;;;10.13;7.40;;;34.00;92.20;;;;;;4982484;28;20129;-65
2023/01/12 03:56:41;;;;;;;8.40;6.03;;;34.50;92.30;;;;;;4985532;28;20268;-62
2023/01/12 03:59:08;;;;;;;9.30;6.57;;;34.10;91.30;;;;;;4987089;28;20549;-59
2023/01/12 04:01:36;;;;;;;7.93;6.60;;;34.30;91.50;;;;;;4982321;28;20030;-60
2023/01/12 04:04:03;;;;;;;8.20;6.78;;;33.90;92.40;;;;;;4987826;28;20027;-60
2023/01/12 04:06:30;;;;;;;6.90;5.60;;;34.30;91.50;;;;;;4981676;28;20531;-66
2023/01/12 04:08:56;;;;;;;9.40;7.15;;;34.30;91.00;;;;;;4983483;28;20107;-60
2023/01/12 04:14:09;;;;;;;7.50;6.30;;;34.50;91.50;;;;;;4981361;28;20037;-67
2023/01/12 04:16:36;;;;;;;7.30;5.82;;;34.50;91.90;;;;;;5002160;28;20691;-67
2023/01/12 04:19:02;;;;;;;7.95;6.25;;;35.00;90.70;;;;;;5022491;28;20063;-68
2023/01/12 04:24:14;;;;;;;9.75;6.03;;;34.20;91.20;;;;;;5020559;28;20041;-60
2023/01/12 04:26:41;;;;;;;6.22;5.60;;;33.60;91.30;;;;;;5020950;28;20136;-61
2023/01/12 04:29:08;;;;;;;8.20;5.75;;;33.80;91.40;;;;;;5024970;28;20056;-68
2023/01/12 04:31:35;;;;;;;5.68;5.18;;;33.90;91.10;;;;;;5015792;28;20033;-68
2023/01/12 04:34:02;;;;;;;8.75;5.60;;;34.10;91.00;;;;;;5023860;28;20052;-66
2023/01/12 04:36:29;;;;;;;8.13;4.82;;;34.50;91.60;;;;;;5020315;28;20052;-68
2023/01/12 04:38:56;;;;;;;7.13;5.28;;;34.80;90.40;;;;;;5021855;28;20040;-67
2023/01/12 04:41:23;;;;;;;7.85;4.78;;;34.00;90.60;;;;;;5022311;28;20537;-66
2023/01/12 04:43:50;;;;;;;6.78;5.47;;;33.30;91.60;;;;;;5025008;28;20032;-66
2023/01/12 04:46:17;;;;;;;7.65;4.63;;;33.60;91.50;;;;;;5023317;28;20400;-61
2023/01/12 04:48:44;;;;;;;8.52;4.57;;;34.00;91.90;;;;;;5021355;28;20036;-61
2023/01/12 04:51:11;;;;;;;5.72;4.55;;;34.00;91.00;;;;;;5026294;28;20103;-67
2023/01/12 04:53:38;;;;;;;7.53;4.55;;;33.60;91.40;;;;;;5022006;28;20025;-61
2023/01/12 04:56:06;;;;;;;6.95;4.80;;;33.60;91.60;;;;;;5026406;28;20389;-61
2023/01/12 04:58:34;;;;;;;6.28;4.47;;;33.90;91.30;;;;;;5021559;28;20026;-66
2023/01/12 05:01:11;;;;;;;11.10;4.82;;;33.60;91.70;;;;;;5021426;28;20049;-61
2023/01/12 05:03:38;;;;;;;6.00;4.25;;;33.40;91.20;;;;;;5014572;28;20060;-68
2023/01/12 05:06:06;;;;;;;5.03;3.97;;;33.60;90.90;;;;;;5019072;28;20026;-67
2023/01/12 05:11:20;;;;;;;6.40;4.70;;;33.20;91.40;;;;;;5021877;28;20087;-68
2023/01/12 05:13:47;;;;;;;6.30;4.82;;;33.40;91.90;;;;;;5023857;28;20223;-61
2023/01/12 05:16:16;;;;;;;6.75;4.60;;;33.90;91.10;;;;;;5025551;28;20473;-61
2023/01/12 05:18:44;;;;;;;7.55;4.18;;;34.50;91.30;;;;;;5024071;28;20103;-61
2023/01/12 05:21:12;;;;;;;7.55;4.30;;;34.70;91.00;;;;;;5024687;28;20022;-65
2023/01/12 05:23:39;;;;;;;10.13;4.60;;;34.40;90.40;;;;;;5025095;28;20009;-65
2023/01/12 05:26:07;;;;;;;4.72;3.70;;;34.10;90.60;;;;;;5021378;28;20291;-69
2023/01/12 05:28:34;;;;;;;6.75;3.92;;;33.80;90.90;;;;;;5023787;28;20029;-69
2023/01/12 05:31:07;;;;;;;6.80;4.63;;;33.70;91.30;;;;;;5023263;28;20057;-68
2023/01/12 05:33:34;;;;;;;7.35;4.47;;;33.80;90.70;;;;;;5021931;28;20035;-70
2023/01/12 05:36:04;;;;;;;6.63;4.07;;;33.40;91.10;;;;;;5021418;28;20029;-64
2023/01/12 05:38:32;;;;;;;8.98;4.78;;;33.40;91.40;;;;;;5021043;28;20045;-70
2023/01/12 05:41:00;;;;;;;4.25;3.58;;;34.00;90.70;;;;;;5022496;28;20052;-59
2023/01/12 05:46:14;;;;;;;8.93;4.45;;;33.60;91.20;;;;;;5027745;28;20048;-63
2023/01/12 05:48:42;;;;;;;6.53;4.07;;;34.30;90.50;;;;;;5028697;28;20033;-68
2023/01/12 05:51:12;;;;;;;5.70;3.78;;;34.20;91.00;;;;;;5029629;28;20025;-67
2023/01/12 05:53:40;;;;;;;5.53;4.18;;;34.70;90.50;;;;;;5027557;28;20033;-60
2023/01/12 05:56:10;;;;;;;7.18;4.63;;;33.80;90.10;;;;;;5025664;28;20618;-69
2023/01/12 05:58:37;;;;;;;5.60;3.55;;;33.80;90.70;;;;;;5026796;28;20040;-68
2023/01/12 06:01:08;;;;;;;7.00;4.20;;;33.80;91.00;;;;;;5021912;28;20566;-61
2023/01/12 06:03:36;;;;;;;5.38;4.07;;;34.20;89.50;;;;;;5022871;28;20029;-61
2023/01/12 06:06:04;;;;;;;5.07;3.30;;;33.90;90.50;;;;;;5026440;28;20036;-61
2023/01/12 06:08:31;;;;;;;5.57;3.42;;;34.10;89.70;;;;;;5024335;28;20108;-67
2023/01/12 06:11:02;;;;;;;5.00;3.55;;;34.30;88.90;;;;;;5024045;28;20388;-67
2023/01/12 06:16:14;;;;;;;8.02;3.40;;;34.20;89.50;;;;;;5025168;28;20032;-60
2023/01/12 06:18:41;;;;;;;5.72;3.92;;;34.40;90.00;;;;;;5023491;28;20032;-60
2023/01/12 06:21:09;;;;;;;3.90;3.50;;;34.40;88.20;;;;;;5022841;28;20021;-69
2023/01/12 06:23:36;;;;;;;6.53;4.03;;;34.00;89.50;;;;;;5025069;28;20021;-61
2023/01/12 06:26:06;;;;;;;6.53;4.00;;;34.00;88.90;;;;;;5023343;28;20087;-63
2023/01/12 06:28:32;;;;;;;5.20;3.85;;;34.10;88.70;;;;;;5026406;28;20389;-66
2023/01/12 06:31:02;;;;;;;6.13;3.85;;;33.10;90.10;;;;;;5021793;28;20088;-65
2023/01/12 06:33:30;;;;;;;8.30;3.90;;;32.40;90.20;;;;;;5022476;28;20534;-63
2023/01/12 06:35:58;;;;;;;6.53;4.13;;;31.70;90.70;;;;;;5021705;28;20154;-62
2023/01/12 06:38:27;;;;;;;7.38;4.45;;;31.20;91.70;;;;;;5018154;28;20037;-70
2023/01/12 06:40:56;;;;;;;5.65;3.53;;;31.20;91.70;;;;;;5019932;28;20033;-67
2023/01/12 06:43:23;;;;;;;6.57;3.92;;;31.30;91.20;;;;;;5016090;28;20622;-60
2023/01/12 06:45:53;;;;;;;6.70;3.30;;;31.60;90.80;;;;;;5021686;28;20120;-60
2023/01/12 06:48:24;;;;;;;5.20;3.63;;;31.30;91.00;;;;;;5020764;28;20037;-60
2023/01/12 06:50:56;;;;;;;6.35;3.35;;;31.00;91.10;;;;;;5017086;28;20033;-60
2023/01/12 06:53:23;;;;;;;5.82;3.30;;;31.00;91.30;;;;;;5023857;28;20055;-68
2023/01/12 06:55:50;;;;;;;9.65;4.28;;;30.30;91.90;;;;;;5018712;28;20113;-60
2023/01/12 06:58:17;;;;;;;5.07;3.10;;;29.80;92.30;;;;;;5020843;28;20037;-59
2023/01/12 07:00:45;;;;;;;5.57;3.47;;;29.90;92.70;;;;;;5021726;28;20031;-63
2023/01/12 07:03:17;;;;;;;5.90;3.80;;;30.10;92.50;;;;;;5019623;28;20021;-62
2023/01/12 07:05:44;;;;;;;8.43;3.97;;;29.90;92.70;;;;;;5017084;28;20030;-66
2023/01/12 07:08:14;;;;;;;5.18;3.03;;;29.50;92.70;;;;;;5021198;28;20025;-62
2023/01/12 07:10:42;;;;;;;5.50;3.53;;;29.00;93.40;;;;;;5019987;28;20045;-62
2023/01/12 07:13:09;;;;;;;6.00;2.83;;;29.10;93.50;;;;;;5021642;28;20028;-72
2023/01/12 07:15:36;;;;;;;5.22;3.17;;;29.60;92.90;;;;;;5022784;28;20037;-66
2023/01/12 07:18:03;;;;;;;3.45;2.83;;;30.20;92.30;;;;;;5021514;28;20399;-61
2023/01/12 07:20:31;;;;;;;6.40;3.47;;;30.80;92.20;;;;;;5022335;28;20412;-63
2023/01/12 07:22:58;;;;;;;5.05;3.58;;;31.10;91.50;;;;;;5022877;28;20028;-69
2023/01/12 07:25:25;;;;;;;3.80;2.38;;;31.50;91.70;;;;;;5024897;28;20112;-71
2023/01/12 07:27:54;;;;;;;5.45;2.88;;;32.10;90.20;;;;;;5022078;28;20025;-62
2023/01/12 07:30:22;;;;;;;3.70;2.67;;;32.10;90.30;;;;;;5024126;28;20057;-68
2023/01/12 07:32:49;;;;;;;3.53;2.20;;;31.80;90.00;;;;;;5023103;28;20030;-64
2023/01/12 07:35:17;;;;;;;3.97;2.67;;;30.90;91.00;;;;;;5022836;28;20029;-61
2023/01/12 07:37:53;;;;;;;5.07;2.58;;;30.50;91.30;;;;;;5023586;28;20025;-62
2023/01/12 07:40:20;;;;;;;2.88;2.40;;;30.20;91.30;;;;;;5021769;28;20026;-65
2023/01/12 07:42:47;;;;;;;4.65;2.30;;;29.80;91.70;;;;;;5021618;28;20031;-61
2023/01/12 07:45:14;;;;;;;3.65;2.30;;;29.40;91.90;;;;;;5022849;28;20029;-67
2023/01/12 07:47:41;;;;;;;4.60;2.22;;;28.60;92.40;;;;;;5021465;28;20030;-68
2023/01/12 07:50:08;;;;;;;5.72;2.30;;;27.80;93.30;;;;;;5020290;28;20061;-64
2023/01/12 07:52:36;;;;;;;4.22;1.77;;;27.50;93.50;;;;;;5021433;28;20025;-70
2023/01/12 07:55:03;;;;;;;3.10;1.95;;;27.20;93.80;;;;;;5023184;28;20030;-68
2023/01/12 07:57:30;;;;;;;3.75;1.85;;;26.80;94.40;;;;;;5022136;28;20025;-74
2023/01/12 07:59:57;;;;;;;3.13;2.03;;;26.70;94.90;;;;;;5020353;28;20025;-71
2023/01/12 08:02:24;;;;;;;3.97;2.00;;;26.60;95.10;;;;;;4673328;28;9999944;-59
2023/01/12 08:04:53;;;;;;;5.53;1.95;;;26.40;95.40;;;;;;5018023;28;20271;-62
2023/01/12 08:07:20;;;;;;;3.28;1.60;;;26.40;95.80;;;;;;5018778;28;20068;-60
2023/01/12 08:09:47;;;;;;;5.50;1.98;;;26.20;95.70;;;;;;5016297;28;20052;-71
2023/01/12 08:12:14;;;;;;;4.50;1.42;;;26.30;96.10;;;;;;5022345;28;20029;-66
2023/01/12 08:14:42;;;;;;;3.30;1.45;;;26.10;95.90;;;;;;5017385;28;20025;-61
2023/01/12 08:17:18;;;;;;;3.90;1.55;;;26.20;95.90;;;;;;5017161;28;20418;-67
2023/01/12 08:19:59;;;;;;;2.10;1.45;;;26.00;96.30;;;;;;5024098;28;20534;-65
2023/01/12 08:22:35;;;;;;;3.15;1.50;;;25.80;96.50;;;;;;5019770;28;20053;-63
2023/01/12 08:25:10;;;;;;;3.25;1.50;;;25.60;97.10;;;;;;5023334;28;20558;-67
2023/01/12 08:27:40;;;;;;;5.50;1.95;;;25.60;97.20;;;;;;5015848;28;20184;-61
2023/01/12 08:30:09;;;;;;;3.83;1.50;;;25.60;96.90;;;;;;5017820;28;20032;-69
2023/01/12 08:32:36;;;;;;;3.45;1.42;;;25.60;97.30;;;;;;5011885;28;20204;-62
2023/01/12 08:35:04;;;;;;;2.05;1.25;;;25.50;97.30;;;;;;5015295;28;20029;-62
2023/01/12 08:37:33;;;;;;;4.82;2.08;;;25.30;97.30;;;;;;5020203;28;20029;-60
2023/01/12 08:40:00;;;;;;;3.28;1.42;;;25.20;97.60;;;;;;5014960;28;20252;-63
2023/01/12 08:42:27;;;;;;;5.55;1.40;;;25.00;98.00;;;;;;5011430;28;20346;-64
2023/01/12 08:44:54;;;;;;;5.07;2.10;;;24.90;98.10;;;;;;5015369;28;20424;-69
2023/01/12 08:47:29;;;;;;;3.42;1.48;;;24.70;98.40;;;;;;5018563;28;20018;-62
2023/01/12 08:49:59;;;;;;;5.70;1.60;;;24.70;98.50;;;;;;5014516;28;20040;-62
2023/01/12 08:52:31;;;;;;;3.53;1.42;;;24.60;98.40;;;;;;5013518;28;20336;-67
2023/01/12 08:54:57;;;;;;;;;;;24.50;98.80;;;;;;5013933;28;20033;-64
2023/01/12 08:57:24;;;;;;;3.95;2.17;;;24.40;99.00;;;;;;5012477;28;20923;-61
2023/01/12 08:59:51;;;;;;;7.65;3.13;;;24.40;98.90;;;;;;5015837;28;20675;-61
2023/01/12 09:02:18;;;;;;;7.13;1.52;;;24.30;99.00;;;;;;5012527;28;20243;-68
2023/01/12 09:04:45;;;;;;;4.05;1.60;;;24.20;99.20;;;;;;5013659;28;20465;-63
2023/01/12 09:07:12;;;;;;;4.15;1.55;;;24.20;99.40;;;;;;5013562;28;20191;-62
2023/01/12 09:09:39;;;;;;;3.42;1.38;;;24.20;99.40;;;;;;5015208;28;20039;-69
2023/01/12 09:12:06;;;;;;;4.95;1.73;;;23.90;99.70;;;;;;5017424;28;20155;-64
2023/01/12 09:14:37;;;;;;;3.50;1.52;;;23.80;99.90;;;;;;5014395;28;20026;-61
2023/01/12 09:17:06;;;;;;;3.65;1.42;;;23.80;99.90;;;;;;5015125;28;20229;-64
2023/01/12 09:19:33;;;;;;;2.97;1.52;;;23.60;99.90;;;;;;5015317;28;20033;-68
2023/01/12 09:21:59;;;;;;;7.80;1.60;;;23.60;99.90;;;;;;5014787;28;20048;-62
2023/01/12 09:24:26;;;;;;;6.05;1.58;;;23.60;99.90;;;;;;5011161;28;20027;-62
2023/01/12 09:26:53;;;;;;;3.15;1.20;;;23.60;99.90;;;;;;5013942;28;20472;-61
2023/01/12 09:29:20;;;;;;;5.53;1.90;;;23.40;99.90;;;;;;5013656;28;20284;-59
2023/01/12 09:31:47;;;;;;;4.07;1.50;;;23.20;99.90;;;;;;5017394;28;20069;-69
2023/01/12 09:34:14;;;;;;;6.03;1.48;;;23.20;99.90;;;;;;5016144;28;20623;-62
2023/01/12 09:36:41;;;;;;;4.80;1.65;;;23.20;99.90;;;;;;5012722;28;20475;-62
2023/01/12 09:39:08;;;;;;;3.50;1.80;;;23.30;99.90;;;;;;5017795;28;20111;-58
2023/01/12 09:47:57;;;;;;;6.88;2.08;;;23.20;99.90;;;;;;5016864;28;20040;-68
2023/01/12 09:50:30;;;;;;;7.95;2.35;;;23.10;99.90;;;;;;5017423;28;20489;-59
2023/01/12 09:53:27;;;;;;;6.63;1.75;;;23.00;99.90;;;;;;5014411;28;20025;-68
2023/01/12 09:56:12;;;;;;;6.30;2.10;;;23.00;99.90;;;;;;5017389;28;20092;-60
2023/01/12 09:59:09;;;;;;;6.30;1.83;;;23.00;99.90;;;;;;5009951;28;20029;-70
2023/01/12 10:01:37;;;;;;;4.40;1.80;;;22.90;99.90;;;;;;5014302;28;20026;-60
2023/01/12 10:04:05;;;;;;;6.38;1.75;;;22.90;99.90;;;;;;5015616;28;20267;-69
2023/01/12 10:06:34;;;;;;;6.80;1.88;;;22.90;99.90;;;;;;5017576;28;20076;-64
2023/01/12 10:09:17;;;;;;;2.63;1.50;;;22.80;99.90;;;;;;5016630;28;20187;-63
2023/01/12 10:11:47;;;;;;;3.35;1.70;;;22.80;99.90;;;;;;5014802;28;20040;-69
2023/01/12 10:14:29;;;;;;;5.15;1.67;;;22.60;99.90;;;;;;5017914;28;20418;-60
2023/01/12 10:17:30;;;;;;;4.70;1.83;;;22.40;99.90;;;;;;5017819;28;20094;-60
2023/01/12 10:19:57;;;;;;;3.70;1.48;;;22.40;99.90;;;;;;5009630;28;20060;-63
2023/01/12 10:22:37;;;;;;;6.63;2.00;;;22.40;99.90;;;;;;5013546;28;20029;-59
2023/01/12 10:25:14;;;;;;;2.00;0.85;;;22.50;99.90;;;;;;5014154;28;20026;-64
2023/01/12 10:27:46;;;;;;;4.93;1.73;;;22.60;99.90;;;;;;5027397;28;20388;-59
2023/01/12 10:30:28;;;;;;;6.43;1.60;;;22.50;99.90;;;;;;5020491;28;20053;-59
2023/01/12 10:32:55;;;;;;;4.57;1.77;;;22.50;99.90;;;;;;5020754;28;20278;-59
2023/01/12 10:35:24;;;;;;;6.35;1.98;;;22.60;99.90;;;;;;5019414;28;20029;-59
2023/01/12 10:37:55;;;;;;;4.03;1.83;;;22.50;99.90;;;;;;5020856;28;20682;-58
2023/01/12 10:40:31;;;;;;;3.17;1.63;;;22.40;99.90;;;;;;5020538;28;20677;-69
2023/01/12 10:43:19;;;;;;;5.95;2.10;;;22.30;99.90;;;;;;5016032;28;20071;-60
2023/01/12 10:46:13;;;;;;;4.03;1.80;;;22.30;99.90;;;;;;5014219;28;20021;-60
2023/01/12 10:48:43;;;;;;;6.22;2.00;;;22.30;99.90;;;;;;5013130;28;20635;-60
2023/01/12 10:51:32;;;;;;;7.63;5.70;;;22.30;99.90;;;;;;5019081;28;20029;-70
2023/01/12 10:54:09;;;;;;;10.45;4.88;;;22.20;99.90;;;;;;5020896;28;20037;-69
2023/01/12 10:56:42;;;;;;;6.35;3.42;;;22.10;99.90;;;;;;5034157;28;20439;-63
2023/01/12 10:59:12;;;;;;;11.52;5.90;;;22.10;99.90;;;;;;5018392;28;20026;-68
2023/01/12 11:02:11;;;;;;;5.57;2.70;;;22.10;99.90;;;;;;5023735;28;20028;-58
2023/01/12 11:04:41;;;;;;;6.38;2.45;;;22.10;99.90;;;;;;5020362;28;20455;-70
2023/01/12 11:07:28;;;;;;;3.95;1.90;;;22.10;99.90;;;;;;5024416;28;20460;-60
2023/01/12 11:09:57;;;;;;;4.50;1.75;;;22.20;99.90;;;;;;5019420;28;20120;-58
2023/01/12 11:12:26;;;;;;;3.85;1.80;;;22.20;99.90;;;;;;5023910;28;20029;-61
2023/01/12 11:15:14;;;;;;;4.88;1.52;;;22.30;99.90;;;;;;5021140;28;20026;-65
2023/01/12 11:17:56;;;;;;;4.30;1.42;;;22.30;99.90;;;;;;5022198;28;20103;-66
2023/01/12 11:20:44;;;;;;;5.00;2.00;;;22.20;99.90;;;;;;5023200;28;20076;-60
2023/01/12 11:23:38;;;;;;;6.82;2.08;;;22.20;99.90;;;;;;5019095;28;20084;-60
2023/01/12 11:26:23;;;;;;;4.13;1.70;;;22.20;99.90;;;;;;5018282;28;20068;-66
2023/01/12 11:28:54;;;;;;;4.45;1.52;;;22.10;99.90;;;;;;5016607;28;20026;-70
2023/01/12 11:31:38;;;;;;;4.93;1.90;;;21.90;99.90;;;;;;5022507;28;20064;-60
2023/01/12 11:34:17;;;;;;;5.35;1.67;;;21.80;99.90;;;;;;5016272;28;20380;-60
2023/01/12 11:36:52;;;;;;;5.63;1.95;;;21.70;99.90;;;;;;5022016;28;20052;-64
2023/01/12 11:39:25;;;;;;;7.03;1.88;;;21.70;99.90;;;;;;5021109;28;20026;-60
2023/01/12 11:44:50;;;;;;;4.25;1.77;;;21.80;99.90;;;;;;5022679;28;19923;-59
2023/01/12 11:47:56;;;;;;;4.53;2.30;;;21.80;99.90;;;;;;5021769;28;20136;-60
2023/01/12 11:50:36;;;;;;;8.45;2.10;;;21.90;99.90;;;;;;4978825;28;20038;-60
2023/01/12 11:53:06;;;;;;;6.55;1.88;;;22.00;99.90;;;;;;4979798;28;20034;-67
2023/01/12 11:55:35;;;;;;;6.25;1.70;;;22.00;99.90;;;;;;4980156;28;20033;-61
2023/01/12 11:58:12;;;;;;;7.18;1.92;;;22.00;99.90;;;;;;4975237;28;20537;-67
2023/01/12 12:00:54;;;;;;;6.25;2.22;;;22.10;99.90;;;;;;4980133;28;20097;-62
2023/01/12 12:03:27;;;;;;;7.07;2.17;;;21.80;99.90;;;;;;4976810;28;20113;-59
2023/01/12 12:06:13;;;;;;;4.32;1.80;;;21.80;99.90;;;;;;4973816;28;20042;-62
2023/01/12 12:09:10;;;;;;;3.83;1.55;;;21.80;99.90;;;;;;4979050;28;20022;-61
2023/01/12 12:11:46;;;;;;;5.45;2.22;;;21.70;99.90;;;;;;4990667;28;20085;-62
2023/01/12 12:14:29;;;;;;;6.35;2.22;;;21.60;99.90;;;;;;4976634;28;20516;-67
2023/01/12 12:17:05;;;;;;;5.57;1.90;;;21.60;99.90;;;;;;4980571;28;20033;-61
2023/01/12 12:20:02;;;;;;;5.15;2.10;;;21.50;99.90;;;;;;4973807;28;20046;-66
2023/01/12 12:22:48;;;;;;;4.00;1.80;;;21.50;99.90;;;;;;4980175;28;20038;-67
2023/01/12 12:25:29;;;;;;;4.05;2.03;;;21.30;99.90;;;;;;4989841;28;20103;-60
2023/01/12 12:28:44;;;;;;;5.47;2.03;;;21.20;99.90;;;;;;5017398;28;20037;-62
2023/01/12 12:31:21;;;;;;;5.05;1.90;;;21.20;99.90;;;;;;5021430;28;20045;-61
2023/01/12 12:34:02;;;;;;;5.80;2.38;;;21.10;99.90;;;;;;5022461;28;20554;-59
2023/01/12 12:36:29;;;;;;;3.88;1.92;;;20.90;99.90;;;;;;5023621;28;20045;-63
2023/01/12 12:39:14;;;;;;;6.10;2.45;;;21.00;99.90;;;;;;5022290;28;20024;-60
2023/01/12 12:47:50;;;;;;;3.28;1.98;;;20.90;99.90;;;;;;5026747;28;20040;-62
2023/01/12 12:50:43;;;;;;;7.00;2.17;;;20.90;99.90;;;;;;5027326;28;20757;-66
2023/01/12 12:53:13;;;;;;;7.32;2.13;;;20.90;99.90;;;;;;5023048;28;20450;-65
2023/01/12 12:55:41;;;;;;;7.63;2.38;;;21.00;99.90;;;;;;5028488;28;20031;-66
2023/01/12 12:58:20;;;;;;;7.35;2.20;;;21.10;99.90;;;;;;5027447;28;20033;-65
2023/01/12 13:00:49;;;;;;;7.82;2.20;;;21.10;99.90;;;;;;5027552;28;20030;-70
2023/01/12 13:03:40;;;;;;;9.25;3.08;;;21.10;99.90;;;;;;5029940;28;20025;-70
2023/01/12 13:06:28;;;;;;;9.05;2.53;;;21.20;99.90;;;;;;5026973;28;20080;-60
2023/01/12 13:08:57;;;;;;;5.85;2.00;;;21.20;99.90;;;;;;5026854;28;20060;-67
2023/01/12 13:11:50;;;;;;;7.47;2.58;;;21.30;99.90;;;;;;5027629;28;20043;-65
2023/01/12 13:14:27;;;;;;;;;;;21.10;99.90;;;;;;5033216;28;20024;-61
2023/01/12 13:16:58;;;;;;;5.93;1.90;;;21.00;99.90;;;;;;5025969;28;19913;-65
2023/01/12 13:19:38;;;;;;;6.88;2.28;;;21.00;99.90;;;;;;5033258;28;20044;-65
2023/01/12 13:22:44;;;;;;;6.32;2.40;;;21.10;99.90;;;;;;5028907;28;20025;-60
2023/01/12 13:25:21;;;;;;;5.43;2.22;;;21.20;99.90;;;;;;5025489;28;20044;-70
2023/01/12 13:30:26;;;;;;;8.18;3.10;;;21.00;99.90;;;;;;5034793;23;20045;-66
2023/01/12 13:32:53;;;;;;;8.48;2.50;;;20.90;99.90;;;;;;5027335;28;20022;-70
2023/01/12 13:35:33;;;;;;;7.18;2.17;;;20.80;99.90;;;;;;5026085;28;20087;-60
2023/01/12 13:38:21;;;;;;;5.45;2.22;;;20.70;99.90;;;;;;5017116;28;20124;-65
2023/01/12 13:40:49;;;;;;;4.43;2.10;;;20.60;99.90;;;;;;5017468;28;20029;-65
2023/01/12 13:43:21;;;;;;;8.27;2.50;;;20.70;99.90;;;;;;5023634;28;20030;-60
2023/01/12 13:45:59;;;;;;;7.40;2.55;;;20.90;99.90;;;;;;5026410;28;20025;-60
2023/01/12 13:48:28;;;;;;;3.35;2.10;;;21.00;99.90;;;;;;5024917;28;20033;-65
2023/01/12 13:51:02;;;;;;;6.78;2.22;;;21.00;99.90;;;;;;5021231;28;20092;-66
2023/01/12 13:53:31;;;;;;;5.57;2.00;;;20.90;99.90;;;;;;5025517;28;20035;-61
2023/01/12 13:56:02;;;;;;;4.72;1.75;;;20.90;99.90;;;;;;5025326;28;20111;-71
2023/01/12 13:58:40;;;;;;;7.40;2.58;;;20.80;99.90;;;;;;5025327;28;20048;-71
2023/01/12 14:01:28;;;;;;;6.05;2.10;;;20.80;99.90;;;;;;5021588;28;20093;-70
2023/01/12 14:04:16;;;;;;;4.55;2.42;;;20.70;99.90;;;;;;5026893;28;20017;-59
2023/01/12 14:07:05;;;;;;;7.63;2.15;;;20.60;99.90;;;;;;5027854;28;20083;-71